createdAt,value
2022-12-25T00:00:41.717Z,101114.81
2022-12-25T00:03:09.480Z,101116.59
2022-12-25T00:05:39.009Z,101113.19
2022-12-25T00:08:06.535Z,101107.13
2022-12-25T00:10:33.891Z,101105.44
2022-12-25T00:13:01.097Z,101114.13
2022-12-25T00:15:31.438Z,101110.72
2022-12-25T00:17:58.656Z,101111.69
2022-12-25T00:20:27.165Z,101119.53
2022-12-25T00:22:54.818Z,101116.09
2022-12-25T00:25:25.355Z,101118.72
2022-12-25T00:27:56.121Z,101121.34
2022-12-25T00:30:28.426Z,101116.13
2022-12-25T00:32:57.201Z,101110.97
2022-12-25T00:35:24.706Z,101113.59
2022-12-25T00:37:52.209Z,101120.59
2022-12-25T00:40:19.846Z,101126.78
2022-12-25T00:42:49.948Z,101133.75
2022-12-25T00:45:17.476Z,101145.06
2022-12-25T00:47:44.921Z,101146.00
2022-12-25T00:50:14.431Z,101146.06
2022-12-25T00:53:01.085Z,101146.94
2022-12-25T00:55:31.976Z,101147.84
2022-12-25T00:58:00.009Z,101151.38
2022-12-25T01:00:27.969Z,101149.63
2022-12-25T01:02:55.409Z,101140.06
2022-12-25T01:09:32.926Z,101147.88
2022-12-25T01:12:24.361Z,101141.81
2022-12-25T01:14:51.668Z,101140.91
2022-12-25T01:17:19.137Z,101157.41
2022-12-25T01:19:46.656Z,101162.63
2022-12-25T01:22:16.399Z,101166.97
2022-12-25T01:24:44.807Z,101159.16
2022-12-25T01:27:17.568Z,101155.69
2022-12-25T01:29:46.532Z,101163.53
2022-12-25T01:32:14.387Z,101174.88
2022-12-25T01:34:41.933Z,101181.00
2022-12-25T01:37:20.175Z,101182.78
2022-12-25T01:43:32.399Z,101184.66
2022-12-25T01:46:03.912Z,101189.00
2022-12-25T01:48:34.314Z,101202.91
2022-12-25T01:51:11.891Z,101209.00
2022-12-25T01:53:39.347Z,101211.63
2022-12-25T01:56:14.200Z,101216.00
2022-12-25T01:58:44.797Z,101197.78
2022-12-25T02:01:12.513Z,101209.94
2022-12-25T02:03:42.491Z,101212.56
2022-12-25T02:06:10.014Z,101204.75
2022-12-25T02:08:40.612Z,101210.88
2022-12-25T02:11:29.497Z,101210.88
2022-12-25T02:21:09.756Z,101204.81
2022-12-25T02:23:55.636Z,101204.81
2022-12-25T02:32:26.696Z,101217.84
2022-12-25T02:35:17.196Z,101219.59
2022-12-25T02:38:08.125Z,101216.97
2022-12-25T02:40:49.104Z,101212.63
2022-12-25T02:44:03.946Z,101214.34
2022-12-25T02:46:52.836Z,101223.91
2022-12-25T02:49:42.305Z,101222.19
2022-12-25T02:52:38.849Z,101220.44
2022-12-25T02:55:38.693Z,101217.81
2022-12-25T02:58:29.738Z,101224.78
2022-12-25T03:01:31.600Z,101239.53
2022-12-25T03:04:20.703Z,101224.78
2022-12-25T03:07:18.890Z,101227.38
2022-12-25T03:10:25.632Z,101223.03
2022-12-25T03:12:57.327Z,101221.28
2022-12-25T03:15:43.685Z,101221.25
2022-12-25T03:18:20.007Z,101220.41
2022-12-25T03:21:07.140Z,101230.78
2022-12-25T03:23:54.471Z,101229.91
2022-12-25T03:26:40.417Z,101218.53
2022-12-25T03:29:07.670Z,101210.78
2022-12-25T03:31:53.010Z,101222.06
2022-12-25T03:34:47.949Z,101232.44
2022-12-25T03:38:22.165Z,101234.19
2022-12-25T03:41:33.729Z,101239.31
2022-12-25T03:44:29.850Z,101246.25
2022-12-25T03:47:49.824Z,101252.28
2022-12-25T04:36:47.926Z,101276.03
2022-12-25T04:39:15.108Z,101274.25
2022-12-25T04:41:42.276Z,101281.22
2022-12-25T04:44:09.990Z,101277.72
2022-12-25T04:46:40.122Z,101282.88
2022-12-25T04:49:07.317Z,101283.69
2022-12-25T04:51:34.480Z,101284.56
2022-12-25T04:54:03.132Z,101282.84
2022-12-25T04:56:30.384Z,101276.00
2022-12-25T04:58:57.595Z,101283.78
2022-12-25T05:01:25.031Z,101276.91
2022-12-25T05:03:52.452Z,101265.59
2022-12-25T05:06:22.360Z,101276.81
2022-12-25T05:08:49.546Z,101283.78
2022-12-25T05:11:17.374Z,101284.72
2022-12-25T05:13:44.539Z,101288.09
2022-12-25T05:16:25.535Z,101289.91
2022-12-25T05:18:53.067Z,101285.59
2022-12-25T05:21:20.597Z,101275.22
2022-12-25T05:23:51.230Z,101271.78
2022-12-25T05:26:20.471Z,101276.09
2022-12-25T05:28:47.698Z,101273.53
2022-12-25T05:31:15.315Z,101281.31
2022-12-25T05:33:42.568Z,101270.84
2022-12-25T05:36:13.402Z,101270.00
2022-12-25T05:38:41.919Z,101261.31
2022-12-25T05:41:09.800Z,101268.19
2022-12-25T05:43:36.960Z,101266.44
2022-12-25T05:46:08.168Z,101261.28
2022-12-25T05:48:39.079Z,101257.78
2022-12-25T05:51:08.279Z,101252.59
2022-12-25T05:53:38.719Z,101248.34
2022-12-25T05:56:10.099Z,101251.81
2022-12-25T05:58:38.736Z,101255.28
2022-12-25T06:01:12.588Z,101256.19
2022-12-25T06:03:39.827Z,101252.72
2022-12-25T06:06:07.347Z,101250.09
2022-12-25T06:08:35.017Z,101251.88
2022-12-25T06:11:09.748Z,101236.38
2022-12-25T06:13:37.625Z,101241.59
2022-12-25T06:16:06.714Z,101245.88
2022-12-25T06:18:44.251Z,101253.72
2022-12-25T06:21:13.303Z,101244.13
2022-12-25T06:23:40.689Z,101252.69
2022-12-25T06:26:13.134Z,101257.03
2022-12-25T06:28:40.616Z,101257.03
2022-12-25T06:31:09.163Z,101247.47
2022-12-25T06:33:40.175Z,101251.72
2022-12-25T06:36:22.376Z,101243.91
2022-12-25T06:38:49.851Z,101252.53
2022-12-25T06:41:22.373Z,101261.34
2022-12-25T06:43:50.880Z,101261.34
2022-12-25T06:46:18.881Z,101256.97
2022-12-25T06:48:49.600Z,101269.81
2022-12-25T06:51:25.616Z,101274.19
2022-12-25T06:53:53.547Z,101275.06
2022-12-25T06:56:26.908Z,101279.38
2022-12-25T06:59:08.705Z,101278.41
2022-12-25T07:05:08.288Z,101286.22
2022-12-25T07:07:35.433Z,101284.56
2022-12-25T07:10:05.710Z,101281.97
2022-12-25T07:12:32.887Z,101294.00
2022-12-25T07:15:03.030Z,101294.91
2022-12-25T07:17:30.197Z,101300.97
2022-12-25T07:19:57.653Z,101300.06
2022-12-25T07:22:24.829Z,101296.53
2022-12-25T07:24:52.053Z,101305.19
2022-12-25T07:27:19.228Z,101313.00
2022-12-25T07:29:46.460Z,101310.50
2022-12-25T07:32:13.759Z,101313.09
2022-12-25T07:34:41.059Z,101305.25
2022-12-25T07:37:08.244Z,101303.41
2022-12-25T07:39:36.661Z,101304.34
2022-12-25T07:42:04.005Z,101305.28
2022-12-25T07:44:31.157Z,101301.00
2022-12-25T07:46:58.316Z,101300.97
2022-12-25T07:49:25.541Z,101301.88
2022-12-25T07:51:52.737Z,101305.34
2022-12-25T07:54:22.675Z,101306.22
2022-12-25T07:56:53.586Z,101313.13
2022-12-25T07:59:21.379Z,101307.09
2022-12-25T08:01:50.381Z,101300.25
2022-12-25T08:04:17.915Z,101301.13
2022-12-25T08:06:45.156Z,101302.03
2022-12-25T08:09:13.137Z,101308.13
2022-12-25T08:14:32.054Z,101305.59
2022-12-25T08:16:59.495Z,101296.97
2022-12-25T08:19:52.234Z,101312.72
2022-12-25T08:22:19.551Z,101302.41
2022-12-25T08:24:47.182Z,101303.22
2022-12-25T08:27:17.504Z,101292.66
2022-12-25T08:29:49.133Z,101296.19
2022-12-25T08:32:16.354Z,101303.22
2022-12-25T08:34:43.650Z,101300.63
2022-12-25T08:37:10.952Z,101301.44
2022-12-25T08:39:38.238Z,101301.44
2022-12-25T08:42:05.679Z,101289.31
2022-12-25T08:44:33.102Z,101283.25
2022-12-25T08:47:02.256Z,101285.03
2022-12-25T08:49:29.604Z,101269.47
2022-12-25T08:51:57.130Z,101263.44
2022-12-25T08:54:25.297Z,101268.69
2022-12-25T08:56:56.150Z,101269.59
2022-12-25T08:59:29.566Z,101266.09
2022-12-25T09:01:57.489Z,101266.06
2022-12-25T09:04:25.217Z,101270.47
2022-12-25T09:06:52.522Z,101272.25
2022-12-25T09:09:19.752Z,101267.03
2022-12-25T09:11:47.081Z,101270.50
2022-12-25T09:14:14.440Z,101265.22
2022-12-25T09:16:41.952Z,101262.59
2022-12-25T09:19:09.521Z,101261.78
2022-12-25T09:21:37.374Z,101258.38
2022-12-25T09:24:05.455Z,101264.44
2022-12-25T09:26:32.910Z,101261.00
2022-12-25T09:29:00.411Z,101255.81
2022-12-25T09:31:27.890Z,101247.16
2022-12-25T09:33:59.681Z,101250.63
2022-12-25T09:36:27.021Z,101251.44
2022-12-25T09:38:57.510Z,101243.63
2022-12-25T09:41:43.213Z,101245.38
2022-12-25T09:44:19.701Z,101239.31
2022-12-25T09:47:11.224Z,101233.31
2022-12-25T09:50:17.894Z,101230.75
2022-12-25T09:53:07.173Z,101233.34
2022-12-25T09:55:35.951Z,101243.81
2022-12-25T09:58:11.237Z,101236.06
2022-12-25T10:00:52.198Z,101237.78
2022-12-25T10:03:35.456Z,101237.81
2022-12-25T10:06:40.285Z,101249.09
2022-12-25T10:09:25.887Z,101250.81
2022-12-25T10:12:27.092Z,101240.41
2022-12-25T10:15:22.669Z,101244.75
2022-12-25T10:18:14.387Z,101236.94
2022-12-25T10:24:38.382Z,101236.06
2022-12-25T10:27:15.995Z,101222.19
2022-12-25T10:29:45.524Z,101223.91
2022-12-25T10:32:15.996Z,101217.81
2022-12-25T10:34:46.118Z,101213.44
2022-12-25T10:37:13.531Z,101207.34
2022-12-25T10:39:46.406Z,101201.28
2022-12-25T10:42:38.729Z,101211.69
2022-12-25T10:45:10.508Z,101201.25
2022-12-25T10:47:42.041Z,101207.28
2022-12-25T10:50:23.017Z,101197.66
2022-12-25T10:52:59.850Z,101196.81
2022-12-25T10:55:29.505Z,101195.97
2022-12-25T10:57:58.535Z,101205.50
2022-12-25T11:00:28.289Z,101195.94
2022-12-25T11:03:00.638Z,101193.31
2022-12-25T11:09:20.245Z,101193.22
2022-12-25T11:11:48.173Z,101186.19
2022-12-25T11:14:20.739Z,101180.84
2022-12-25T11:16:48.416Z,101180.78
2022-12-25T11:19:31.382Z,101174.63
2022-12-25T11:22:06.453Z,101172.75
2022-12-25T11:24:35.139Z,101177.94
2022-12-25T11:27:06.410Z,101184.78
2022-12-25T11:29:49.210Z,101177.75
2022-12-25T11:32:28.573Z,101172.44
2022-12-25T11:34:55.882Z,101164.50
2022-12-25T11:37:43.919Z,101151.41
2022-12-25T11:40:22.301Z,101139.22
2022-12-25T11:43:07.622Z,101140.97
2022-12-25T11:45:45.223Z,101137.31
2022-12-25T11:48:28.084Z,101117.25
2022-12-25T11:50:57.597Z,101094.63
2022-12-25T11:53:44.978Z,101084.00
2022-12-25T11:56:18.372Z,101077.91
2022-12-25T11:59:13.654Z,101084.88
2022-12-25T12:01:55.973Z,101085.72
2022-12-25T12:04:36.912Z,101082.19
2022-12-25T12:07:24.649Z,101084.72
2022-12-25T12:10:17.836Z,101086.50
2022-12-25T12:12:52.626Z,101089.81
2022-12-25T12:15:39.292Z,101087.19
2022-12-25T12:18:19.839Z,101094.94
2022-12-25T12:20:58.986Z,101079.06
2022-12-25T12:23:29.153Z,101069.47
2022-12-25T12:25:56.988Z,101065.00
2022-12-25T12:28:27.696Z,101060.59
2022-12-25T12:31:03.981Z,101064.06
2022-12-25T12:33:38.576Z,101063.25
2022-12-25T12:36:06.878Z,101065.00
2022-12-25T12:39:22.596Z,101066.84
2022-12-25T12:41:50.622Z,101069.28
2022-12-25T12:48:16.761Z,101057.81
2022-12-25T12:54:33.462Z,101059.50
2022-12-25T12:57:27.170Z,101049.06
2022-12-25T12:59:54.436Z,101050.72
2022-12-25T13:02:59.973Z,101049.06
2022-12-25T13:05:50.595Z,101056.88
2022-12-25T13:08:29.220Z,101063.78
2022-12-25T13:11:28.647Z,101060.16
2022-12-25T13:13:58.626Z,101050.69
2022-12-25T13:16:36.125Z,101051.59
2022-12-25T13:19:14.147Z,101049.13
2022-12-25T13:21:41.634Z,101049.97
2022-12-25T13:24:21.050Z,101051.88
2022-12-25T13:26:48.366Z,101045.72
2022-12-25T13:29:35.603Z,101040.69
2022-12-25T13:32:06.189Z,101027.59
2022-12-25T13:34:41.361Z,101020.78
2022-12-25T13:37:17.037Z,101023.34
2022-12-25T13:39:57.498Z,101022.44
2022-12-25T13:42:27.582Z,101012.84
2022-12-25T13:44:57.809Z,101021.63
2022-12-25T13:47:35.327Z,101009.50
2022-12-25T13:50:13.991Z,100997.91
2022-12-25T13:52:41.244Z,100990.22
2022-12-25T13:55:14.897Z,100980.66
2022-12-25T13:57:49.516Z,100985.91
2022-12-25T14:00:38.560Z,100977.06
2022-12-25T14:06:48.984Z,100983.34
2022-12-25T14:09:16.759Z,100993.78
2022-12-25T14:11:49.804Z,100999.84
2022-12-25T14:14:23.810Z,101001.59
2022-12-25T14:16:55.015Z,100994.63
2022-12-25T14:19:33.627Z,100988.38
2022-12-25T14:22:11.323Z,100975.41
2022-12-25T14:24:40.435Z,100973.69
2022-12-25T14:27:23.332Z,100972.91
2022-12-25T14:29:53.324Z,100975.41
2022-12-25T14:32:23.094Z,100973.63
2022-12-25T14:41:34.286Z,100953.56
2022-12-25T14:44:22.959Z,100952.75
2022-12-25T14:46:51.975Z,100963.25
2022-12-25T14:49:25.842Z,100947.38
2022-12-25T14:51:53.831Z,100936.91
2022-12-25T14:54:30.321Z,100925.63
2022-12-25T14:57:02.978Z,100935.28
2022-12-25T14:59:30.403Z,100940.56
2022-12-25T15:05:37.654Z,100936.94
2022-12-25T15:08:13.738Z,100944.84
2022-12-25T15:10:59.450Z,100941.28
2022-12-25T15:13:28.771Z,100933.41
2022-12-25T15:16:06.967Z,100923.91
2022-12-25T15:18:41.712Z,100933.63
2022-12-25T15:21:36.508Z,100912.59
2022-12-25T15:24:06.952Z,100923.88
2022-12-25T15:26:34.373Z,100925.56
2022-12-25T15:29:02.077Z,100932.53
2022-12-25T15:31:31.837Z,100936.13
2022-12-25T15:34:01.068Z,100931.63
2022-12-25T15:36:29.081Z,100928.19
2022-12-25T15:38:56.583Z,100916.75
2022-12-25T15:41:54.696Z,100916.72
2022-12-25T15:44:22.370Z,100909.81
2022-12-25T15:46:49.970Z,100913.31
2022-12-25T15:49:17.957Z,100913.25
2022-12-25T15:51:46.194Z,100904.34
2022-12-25T15:54:13.733Z,100901.63
2022-12-25T15:56:49.259Z,100887.72
2022-12-25T15:59:17.853Z,100885.09
2022-12-25T16:01:53.568Z,100877.34
2022-12-25T16:04:21.456Z,100870.38
2022-12-25T16:06:49.354Z,100857.22
2022-12-25T16:09:17.357Z,100850.28
2022-12-25T16:11:44.697Z,100850.31
2022-12-25T16:14:12.310Z,100849.31
2022-12-25T16:16:40.232Z,100845.78
2022-12-25T16:19:07.925Z,100850.97
2022-12-25T16:21:42.108Z,100853.69
2022-12-25T16:24:09.745Z,100845.03
2022-12-25T22:23:26.942Z,100425.06
2022-12-25T22:25:54.537Z,100423.16
2022-12-25T22:28:25.828Z,100415.22
2022-12-25T22:30:53.059Z,100422.13
2022-12-25T22:33:22.304Z,100427.31
2022-12-25T22:35:49.526Z,100432.34
2022-12-25T22:38:16.759Z,100424.38
2022-12-25T22:40:45.311Z,100415.69
2022-12-25T22:43:12.552Z,100408.53
2022-12-25T22:45:45.129Z,100415.38
2022-12-25T22:48:12.390Z,100417.16
2022-12-25T22:50:39.653Z,100406.72
2022-12-25T22:53:09.613Z,100409.38
2022-12-25T22:55:38.255Z,100396.16
2022-12-25T22:58:06.529Z,100396.22
2022-12-25T23:00:33.732Z,100395.13
2022-12-25T23:06:48.929Z,100376.69
2022-12-25T23:09:24.143Z,100357.44
2022-12-25T23:12:48.412Z,100369.63
2022-12-25T23:19:19.500Z,100367.63
2022-12-25T23:22:28.761Z,100369.22
